Corona Range LRC

2021-09-20 22:15:00

  • imperial
Date Time Air Temperature Relative Humidity Dewpoint Windchill Heat Index Wind Speed Wind Dir. Rain Solar Radiation Soil Temperature
2m 2m 3m 3m 10cm
US/Mountain F % F F F MPH deg in MJ/m^2 F
max avg avg
2021-09-19 22:30:00 71.5 35.4 42.7 71.5 71.5 9.2 11.5 9.6 221.5 216.0 0.00 0.0000000 79.0
2021-09-19 22:35:00 71.6 35.2 42.6 71.6 71.6 11.5 14.2 11.1 199.2 215.8 0.00 0.0000000 78.9
2021-09-19 22:40:00 71.5 35.3 42.6 71.5 71.5 8.0 13.1 10.7 209.9 221.2 0.00 0.0000000 78.8
2021-09-19 22:45:00 71.4 35.4 42.6 71.4 71.4 11.3 15.5 10.8 235.3 218.5 0.00 0.0000000 78.8
2021-09-19 22:50:00 71.3 35.7 42.7 71.3 71.3 8.7 15.1 10.7 216.1 217.7 0.00 0.0000000 78.7
2021-09-19 22:55:00 71.3 35.5 42.6 71.3 71.3 11.5 15.1 10.5 206.0 217.5 0.00 0.0000000 78.6
2021-09-19 23:00:00 71.3 35.5 42.6 71.3 71.3 10.3 13.3 10.4 198.3 220.4 0.00 0.0000000 78.5
2021-09-19 23:05:00 70.7 36.4 42.8 70.7 70.7 10.3 11.7 8.7 224.0 227.8 0.00 0.0000000 78.4
2021-09-19 23:10:00 70.3 37.1 42.9 70.3 70.3 10.5 11.3 9.1 225.4 236.3 0.00 0.0000000 78.4
2021-09-19 23:15:00 70.7 36.2 42.6 70.7 70.7 11.9 13.9 10.8 219.6 218.4 0.00 0.0000000 78.3
2021-09-19 23:20:00 70.8 36.0 42.5 70.8 70.8 12.6 14.7 11.4 243.9 233.8 0.00 0.0000000 78.2
2021-09-19 23:25:00 70.9 35.9 42.5 70.9 70.9 9.6 15.1 11.1 219.5 225.3 0.00 0.0000000 78.1
2021-09-19 23:30:00 70.7 35.9 42.4 70.7 70.7 10.6 12.6 10.4 215.1 222.4 0.00 0.0000000 78.1
2021-09-19 23:35:00 70.8 35.2 42.0 70.8 70.8 9.9 13.1 11.0 210.8 222.1 0.00 0.0000000 78.0
2021-09-19 23:40:00 71.1 34.9 42.0 71.1 71.1 11.7 14.2 10.7 219.9 224.2 0.00 0.0000000 77.9
2021-09-19 23:45:00 70.6 35.2 41.8 70.6 70.6 10.5 12.2 9.4 225.8 221.0 0.00 0.0000000 77.8
2021-09-19 23:50:00 70.3 35.4 41.6 70.3 70.3 7.6 10.3 8.8 224.6 223.2 0.00 0.0000000 77.7
2021-09-19 23:55:00 70.1 35.2 41.3 70.1 70.1 7.1 10.8 8.0 234.7 230.0 0.00 0.0000000 77.7
2021-09-20 00:00:00 69.5 34.9 40.6 69.5 69.5 8.0 10.6 6.8 238.5 236.9 0.00 0.0000000 77.6
2021-09-20 00:05:00 70.1 34.3 40.6 70.1 70.1 8.7 11.3 7.6 225.5 240.9 0.00 0.0000000 77.5
2021-09-20 00:10:00 70.1 34.6 40.9 70.1 70.1 8.3 9.6 7.5 223.5 234.9 0.00 0.0000000 77.5
2021-09-20 00:15:00 70.4 34.4 41.0 70.4 70.4 9.9 10.3 8.3 251.8 244.7 0.00 0.0000000 77.4
2021-09-20 00:20:00 70.6 34.4 41.1 70.6 70.6 8.3 13.9 8.4 285.3 246.1 0.00 0.0000000 77.3
2021-09-20 00:25:00 71.2 33.8 41.2 71.2 71.2 9.4 12.8 10.1 245.4 250.8 0.00 0.0000000 77.3
2021-09-20 00:30:00 71.4 33.8 41.4 71.4 71.4 10.1 13.9 10.5 236.8 256.6 0.00 0.0000000 77.2
2021-09-20 00:35:00 71.3 34.0 41.4 71.3 71.3 12.2 12.2 10.2 242.6 257.6 0.00 0.0000000 77.1
2021-09-20 00:40:00 71.9 33.5 41.6 71.9 71.9 13.0 16.5 12.0 258.2 259.9 0.00 0.0000000 77.1
2021-09-20 00:45:00 71.8 33.4 41.4 71.8 71.8 13.7 16.5 11.9 256.5 261.3 0.00 0.0000000 77.0
2021-09-20 00:50:00 71.8 33.4 41.5 71.8 71.8 9.7 15.6 11.8 263.9 264.6 0.00 0.0000000 76.9
2021-09-20 00:55:00 71.3 34.3 41.7 71.3 71.3 8.0 14.9 10.2 259.6 266.4 0.00 0.0000000 76.9
2021-09-20 01:00:00 71.2 34.4 41.7 71.2 71.2 13.1 15.6 11.8 276.1 267.1 0.00 0.0000000 76.8
2021-09-20 01:05:00 71.0 35.1 42.0 71.0 71.0 12.1 15.3 10.5 272.2 269.1 0.00 0.0000000 76.7
2021-09-20 01:10:00 70.6 35.7 42.1 70.6 70.6 9.9 13.3 10.7 279.5 268.0 0.00 0.0000000 76.6
2021-09-20 01:15:00 70.4 35.9 42.1 70.4 70.4 11.0 15.1 11.2 279.7 272.0 0.00 0.0000000 76.6
2021-09-20 01:20:00 70.3 36.2 42.2 70.3 70.3 11.3 16.7 11.1 241.5 273.8 0.00 0.0000000 76.5
2021-09-20 01:25:00 70.1 36.4 42.2 70.1 70.1 13.7 14.0 10.3 273.5 272.4 0.00 0.0000000 76.4
2021-09-20 01:30:00 70.0 36.8 42.4 70.0 70.0 13.5 14.7 10.9 268.8 267.2 0.00 0.0000000 76.4
2021-09-20 01:35:00 69.7 37.5 42.5 69.7 69.7 8.7 12.2 9.7 257.2 258.5 0.00 0.0000000 76.3
2021-09-20 01:40:00 69.7 37.8 42.8 69.7 69.7 9.2 13.0 10.5 262.6 264.4 0.00 0.0000000 76.3
2021-09-20 01:45:00 69.7 38.4 43.2 69.7 69.7 11.7 16.0 11.0 237.8 254.9 0.00 0.0000000 76.2
2021-09-20 01:50:00 69.4 39.0 43.4 69.4 69.4 12.6 13.3 10.8 254.7 256.9 0.00 0.0000000 76.1
2021-09-20 01:55:00 69.4 39.4 43.6 69.4 69.4 8.0 16.0 11.0 261.4 260.5 0.00 0.0000000 76.1
2021-09-20 02:00:00 69.2 39.7 43.7 69.2 69.2 8.1 13.3 10.4 262.7 261.5 0.00 0.0000000 76.0
2021-09-20 02:05:00 69.2 39.6 43.6 69.2 69.2 10.8 15.3 10.9 261.2 269.1 0.00 0.0000000 76.0
2021-09-20 02:10:00 69.3 40.0 44.0 69.3 69.3 11.9 15.6 11.7 274.9 266.5 0.00 0.0000000 75.9
2021-09-20 02:15:00 68.9 40.7 44.1 68.9 68.9 12.8 12.8 10.1 270.2 264.9 0.00 0.0000000 75.8
2021-09-20 02:20:00 68.8 40.9 44.0 68.8 68.8 8.1 13.7 10.6 273.0 261.0 0.00 0.0000000 75.8
2021-09-20 02:25:00 68.5 41.8 44.3 68.5 68.5 9.2 12.6 10.1 259.3 260.9 0.00 0.0000000 75.7
2021-09-20 02:30:00 68.1 42.2 44.3 68.1 68.1 11.3 13.0 10.0 285.9 261.4 0.00 0.0000000 75.7
2021-09-20 02:35:00 68.1 41.9 44.1 68.1 68.1 8.1 13.1 9.3 255.6 259.8 0.00 0.0000000 75.6
2021-09-20 02:40:00 67.9 42.4 44.2 67.9 67.9 7.1 11.3 8.2 277.6 263.4 0.00 0.0000000 75.5
2021-09-20 02:45:00 68.1 41.9 44.1 68.1 68.1 8.5 11.7 9.2 242.0 262.9 0.00 0.0000000 75.5
2021-09-20 02:50:00 68.1 41.7 44.0 68.1 68.1 8.1 13.5 9.5 269.6 262.1 0.00 0.0000000 75.5
2021-09-20 02:55:00 68.1 41.8 44.0 68.1 68.1 10.3 13.1 10.1 269.1 260.5 0.00 0.0000000 75.4
2021-09-20 03:00:00 68.3 41.5 43.9 68.3 68.3 11.7 14.6 11.1 252.1 258.0 0.00 0.0000000 75.4
2021-09-20 03:05:00 68.6 40.9 43.8 68.6 68.6 9.7 15.5 11.1 285.8 257.8 0.00 0.0000000 75.3
2021-09-20 03:10:00 68.6 40.4 43.5 68.6 68.6 11.7 16.7 11.8 266.2 267.5 0.00 0.0000000 75.2
2021-09-20 03:15:00 68.3 40.6 43.5 68.3 68.3 11.9 14.9 11.0 265.3 262.2 0.00 0.0000000 75.2
2021-09-20 03:20:00 68.2 41.0 43.6 68.2 68.2 9.7 17.1 12.4 267.9 266.6 0.00 0.0000000 75.1
2021-09-20 03:25:00 67.9 41.5 43.7 67.9 67.9 8.3 16.4 11.4 256.3 270.4 0.00 0.0000000 75.1
2021-09-20 03:30:00 67.6 42.0 43.7 67.6 67.6 8.8 13.3 10.0 277.8 270.0 0.00 0.0000000 75.0
2021-09-20 03:35:00 67.6 41.4 43.3 67.6 67.6 9.4 12.4 10.1 273.3 263.7 0.00 0.0000000 75.0
2021-09-20 03:40:00 67.5 41.6 43.4 67.5 67.5 11.7 13.9 10.5 270.6 265.3 0.00 0.0000000 74.9
2021-09-20 03:45:00 67.2 42.1 43.3 67.2 67.2 12.1 13.7 10.2 266.2 267.8 0.00 0.0000000 74.9
2021-09-20 03:50:00 66.9 42.4 43.3 66.9 66.9 9.2 13.5 10.4 274.2 272.4 0.00 0.0000000 74.8
2021-09-20 03:55:00 67.0 42.3 43.3 67.0 67.0 15.1 15.1 11.0 258.9 272.8 0.00 0.0000000 74.8
2021-09-20 04:00:00 66.8 42.4 43.2 66.8 66.8 14.6 14.6 11.9 260.8 268.8 0.00 0.0000000 74.7
2021-09-20 04:05:00 66.4 42.8 43.1 66.4 66.4 9.4 14.6 10.5 269.3 266.2 0.00 0.0000000 74.7
2021-09-20 04:10:00 66.2 42.5 42.7 66.2 66.2 7.6 14.4 9.9 260.3 267.8 0.00 0.0000000 74.6
2021-09-20 04:15:00 66.1 41.6 42.1 66.1 66.1 8.8 12.2 9.9 254.5 269.3 0.00 0.0000000 74.6
2021-09-20 04:20:00 66.1 41.3 41.9 66.1 66.1 10.8 14.2 10.7 279.2 265.0 0.00 0.0000000 74.5
2021-09-20 04:25:00 66.0 41.1 41.7 66.0 66.0 6.7 14.0 9.5 254.9 269.2 0.00 0.0000000 74.5
2021-09-20 04:30:00 66.2 40.8 41.7 66.2 66.2 8.8 13.7 9.3 292.3 268.6 0.00 0.0000000 74.4
2021-09-20 04:35:00 65.9 41.4 41.8 65.9 65.9 8.3 13.9 9.0 297.0 266.5 0.00 0.0000000 74.4
2021-09-20 04:40:00 65.7 41.7 41.8 65.7 65.7 8.5 13.7 9.4 290.1 267.4 0.00 0.0000000 74.4
2021-09-20 04:45:00 65.3 42.7 42.1 65.3 65.3 13.3 14.7 9.4 266.0 272.3 0.00 0.0000000 74.3
2021-09-20 04:50:00 65.7 42.2 42.1 65.7 65.7 12.2 15.8 12.3 270.7 271.9 0.00 0.0000000 74.3
2021-09-20 04:55:00 65.6 42.1 41.9 65.6 65.6 13.3 17.1 12.6 266.9 274.5 0.00 0.0000000 74.2
2021-09-20 05:00:00 65.6 42.2 42.0 65.6 65.6 13.1 16.0 12.6 286.3 275.0 0.00 0.0000000 74.2
2021-09-20 05:05:00 65.7 41.9 41.9 65.7 65.7 15.1 17.8 13.5 277.0 269.9 0.00 0.0000000 74.1
2021-09-20 05:10:00 65.8 41.7 41.9 65.8 65.8 14.4 16.2 12.6 259.7 272.6 0.00 0.0000000 74.1
2021-09-20 05:15:00 65.7 41.9 41.9 65.7 65.7 10.3 15.8 11.0 258.6 271.8 0.00 0.0000000 74.0
2021-09-20 05:20:00 65.4 41.8 41.6 65.4 65.4 15.5 15.5 11.4 262.1 267.2 0.00 0.0000000 74.0
2021-09-20 05:25:00 65.1 42.5 41.8 65.1 65.1 7.4 14.0 10.2 236.1 268.8 0.00 0.0000000 74.0
2021-09-20 05:30:00 64.9 42.4 41.5 64.9 64.9 12.8 14.0 10.2 259.6 266.2 0.00 0.0000000 73.9
2021-09-20 05:35:00 64.9 42.6 41.6 64.9 64.9 9.0 13.3 10.6 278.1 270.4 0.00 0.0000000 73.9
2021-09-20 05:40:00 64.5 42.5 41.2 64.5 64.5 15.1 15.1 9.7 264.8 262.5 0.00 0.0000000 73.8
2021-09-20 05:45:00 64.6 42.1 41.0 64.6 64.6 11.3 14.9 10.8 251.3 265.7 0.00 0.0000000 73.7
2021-09-20 05:50:00 64.4 42.6 41.2 64.4 64.4 12.1 14.9 11.0 302.0 274.5 0.00 0.0000000 73.7
2021-09-20 05:55:00 64.2 41.9 40.6 64.2 64.2 15.3 15.3 10.7 272.3 273.2 0.00 0.0000000 73.7
2021-09-20 06:00:00 64.2 42.8 41.1 64.2 64.2 8.3 14.0 11.0 253.4 268.9 0.00 0.0000000 73.6
2021-09-20 06:05:00 63.8 43.8 41.3 63.8 63.8 13.1 14.0 10.6 283.8 273.8 0.00 0.0000000 73.6
2021-09-20 06:10:00 63.7 44.0 41.4 63.7 63.7 8.8 16.4 12.3 260.5 271.5 0.00 0.0000000 73.5
2021-09-20 06:15:00 63.8 43.5 41.2 63.8 63.8 13.3 18.3 13.3 279.6 269.3 0.00 0.0000000 73.5
2021-09-20 06:20:00 63.6 44.2 41.5 63.6 63.6 13.3 18.0 13.0 241.0 270.2 0.00 0.0000000 73.4
2021-09-20 06:25:00 63.4 44.7 41.5 63.4 63.4 11.9 16.0 12.4 300.7 271.0 0.00 0.0000000 73.4
2021-09-20 06:30:00 63.1 45.6 41.8 63.1 63.1 8.3 16.0 11.4 289.4 274.6 0.00 0.0000000 73.3
2021-09-20 06:35:00 63.0 45.8 41.8 63.0 63.0 11.3 15.1 10.8 270.1 272.8 0.00 0.0000000 73.3
2021-09-20 06:40:00 63.0 45.9 41.9 63.0 63.0 11.9 14.2 11.3 253.5 274.7 0.00 0.0000000 73.2
2021-09-20 06:45:00 63.2 46.0 42.1 63.2 63.2 10.6 14.4 11.0 256.8 272.6 0.00 0.0000000 73.2
2021-09-20 06:50:00 63.0 46.7 42.2 63.0 63.0 8.8 12.4 9.5 267.5 274.5 0.00 0.0000000 73.1
2021-09-20 06:55:00 63.2 46.5 42.4 63.2 63.2 14.6 15.5 10.4 281.5 269.3 0.00 0.0005581 73.1
2021-09-20 07:00:00 63.8 46.1 42.7 63.8 63.8 13.9 17.6 12.9 285.8 271.1 0.00 0.0031590 73.1
2021-09-20 07:05:00 63.9 46.1 42.7 63.9 63.9 13.1 18.1 13.2 261.0 268.4 0.00 0.0059559 73.0
2021-09-20 07:10:00 64.2 45.1 42.5 64.2 64.2 18.9 20.3 15.1 275.7 270.3 0.00 0.0089065 73.0
2021-09-20 07:15:00 64.3 45.1 42.6 64.3 64.3 14.4 19.9 14.0 297.1 276.5 0.00 0.0116504 72.9
2021-09-20 07:20:00 64.2 44.5 42.1 64.2 64.2 15.8 20.3 13.6 297.5 276.9 0.00 0.0144361 72.9
2021-09-20 07:25:00 64.4 44.7 42.4 64.4 64.4 13.5 20.3 12.7 268.4 280.9 0.00 0.0172371 72.8
2021-09-20 07:30:00 64.5 44.6 42.5 64.5 64.5 16.0 18.3 15.2 230.0 268.5 0.00 0.0201516 72.8
2021-09-20 07:35:00 64.5 44.8 42.5 64.5 64.5 15.8 17.8 13.4 265.1 269.2 0.00 0.0228343 72.7
2021-09-20 07:40:00 64.5 44.6 42.5 64.5 64.5 11.9 19.4 14.7 228.2 269.3 0.00 0.0257790 72.7
2021-09-20 07:45:00 64.6 45.0 42.7 64.6 64.6 16.0 18.1 14.4 260.9 281.4 0.00 0.0287089 72.6
2021-09-20 07:50:00 64.6 45.2 42.9 64.6 64.6 11.9 16.0 12.8 292.9 286.6 0.00 0.0316890 72.6
2021-09-20 07:55:00 64.8 45.2 43.1 64.8 64.8 13.3 19.2 13.7 266.4 273.3 0.00 0.0346059 72.6
2021-09-20 08:00:00 64.8 44.6 42.7 64.8 64.8 16.9 19.2 13.4 250.2 271.8 0.00 0.0376593 72.5
2021-09-20 08:05:00 64.8 44.5 42.7 64.8 64.8 13.5 19.4 14.4 249.5 275.8 0.00 0.0409373 72.5
2021-09-20 08:10:00 65.3 43.7 42.6 65.3 65.3 12.8 17.1 12.7 250.6 269.7 0.00 0.0439855 72.5
2021-09-20 08:15:00 65.3 43.2 42.3 65.3 65.3 13.0 18.0 13.8 280.5 275.8 0.00 0.0470576 72.4
2021-09-20 08:20:00 65.6 42.4 42.1 65.6 65.6 10.1 15.1 11.7 275.6 283.6 0.00 0.0499205 72.4
2021-09-20 08:25:00 65.9 41.5 41.9 65.9 65.9 9.9 16.2 12.1 286.6 278.4 0.00 0.0532410 72.3
2021-09-20 08:30:00 66.2 40.6 41.6 66.2 66.2 13.1 15.3 11.6 270.8 282.0 0.00 0.0565978 72.3
2021-09-20 08:35:00 66.4 39.8 41.2 66.4 66.4 13.5 18.0 13.4 286.4 276.8 0.00 0.0596578 72.2
2021-09-20 08:40:00 67.0 39.1 41.3 67.0 67.0 12.6 16.4 11.5 264.2 277.0 0.00 0.0629261 72.2
2021-09-20 08:45:00 67.0 39.7 41.7 67.0 67.0 10.6 16.0 12.7 259.0 265.7 0.00 0.0659372 72.2
2021-09-20 08:50:00 67.2 38.8 41.3 67.2 67.2 12.8 16.4 13.3 296.3 261.4 0.00 0.0696595 72.2
2021-09-20 08:55:00 67.5 38.2 41.1 67.5 67.5 12.6 15.3 12.4 253.2 252.3 0.00 0.0728897 72.1
2021-09-20 09:00:00 67.9 37.8 41.3 67.9 67.9 10.1 17.1 12.6 269.8 244.7 0.00 0.0757631 72.1
2021-09-20 09:05:00 67.8 38.3 41.5 67.8 67.8 12.2 16.4 11.7 251.3 249.6 0.00 0.0789094 72.1
2021-09-20 09:10:00 68.1 37.6 41.2 68.1 68.1 11.7 14.7 11.7 245.9 249.1 0.00 0.0820318 72.1
2021-09-20 09:15:00 68.4 37.0 41.1 68.4 68.4 12.8 19.0 11.3 258.2 247.8 0.00 0.0848943 72.1
2021-09-20 09:20:00 68.9 35.9 40.8 68.9 68.9 15.5 16.4 11.6 241.1 241.2 0.00 0.0880158 72.1
2021-09-20 09:25:00 69.7 36.1 41.6 69.7 69.7 7.2 13.7 9.7 255.5 255.0 0.00 0.0907065 72.1
2021-09-20 09:30:00 70.1 35.5 41.5 70.1 70.1 5.6 13.5 10.1 218.7 255.0 0.00 0.0929757 72.1
2021-09-20 09:35:00 70.4 35.4 41.8 70.4 70.4 12.1 14.6 9.9 249.2 246.7 0.00 0.0954334 72.1
2021-09-20 09:40:00 70.3 35.1 41.4 70.3 70.3 8.3 18.9 10.7 302.6 249.5 0.00 0.0981191 72.1
2021-09-20 09:45:00 70.1 36.1 42.0 70.1 70.1 9.4 15.5 12.0 250.9 251.5 0.00 0.1010565 72.1
2021-09-20 09:50:00 70.7 35.3 42.0 70.7 70.7 11.0 15.5 10.9 256.6 257.6 0.00 0.1042628 72.1
2021-09-20 09:55:00 71.3 34.2 41.7 71.3 71.3 16.2 16.2 11.3 247.5 248.9 0.00 0.1072397 72.1
2021-09-20 10:00:00 71.5 34.5 42.0 71.5 71.5 10.5 13.3 9.9 243.3 250.3 0.00 0.1099717 72.1
2021-09-20 10:05:00 71.3 34.1 41.6 71.3 71.3 11.0 19.8 12.3 242.9 244.0 0.00 0.1123260 72.2
2021-09-20 10:10:00 71.6 33.4 41.3 71.6 71.6 14.9 14.9 11.5 268.1 263.6 0.00 0.1148839 72.2
2021-09-20 10:15:00 72.8 32.2 41.4 72.8 72.8 11.7 16.0 10.6 275.2 265.0 0.00 0.1171994 72.2
2021-09-20 10:20:00 72.2 33.5 41.9 72.2 72.2 10.5 16.5 11.6 283.9 269.2 0.00 0.1195973 72.3
2021-09-20 10:25:00 73.2 31.8 41.5 73.2 73.2 10.5 12.8 9.0 257.3 278.8 0.00 0.1222906 72.3
2021-09-20 10:30:00 72.7 33.5 42.3 72.7 72.7 8.3 16.2 10.5 305.8 276.7 0.00 0.1243466 72.4
2021-09-20 10:35:00 72.8 32.1 41.3 72.8 72.8 11.3 14.9 11.5 318.6 305.6 0.00 0.1267188 72.5
2021-09-20 10:40:00 73.9 30.5 41.0 73.9 73.9 9.4 16.5 11.0 269.8 278.8 0.00 0.1291928 72.5
2021-09-20 10:45:00 74.0 30.4 40.9 74.0 74.0 10.3 16.4 11.0 275.3 285.1 0.00 0.1312427 72.6
2021-09-20 10:50:00 73.8 30.3 40.7 73.8 73.8 11.9 18.1 10.7 257.7 283.4 0.00 0.1329348 72.7
2021-09-20 10:55:00 73.7 29.0 39.4 73.7 73.7 13.1 18.5 12.3 294.3 292.3 0.00 0.1348554 72.7
2021-09-20 11:00:00 74.1 28.1 39.0 74.1 74.1 11.9 16.4 12.6 308.9 296.2 0.00 0.1376676 72.8
2021-09-20 11:05:00 74.3 28.3 39.4 74.3 74.3 10.3 19.0 12.5 291.0 277.3 0.00 0.1392938 72.9
2021-09-20 11:10:00 74.1 27.6 38.5 74.1 74.1 12.2 18.1 13.2 270.9 295.0 0.00 0.1406733 73.0
2021-09-20 11:15:00 75.1 28.4 40.1 75.1 75.1 14.0 17.4 13.4 277.5 306.0 0.00 0.1423827 73.1
2021-09-20 11:20:00 74.6 30.0 41.1 74.6 74.6 11.5 16.5 12.2 310.6 287.5 0.00 0.1429519 73.1
2021-09-20 11:25:00 74.6 29.0 40.3 74.6 74.6 9.6 18.7 12.6 298.4 299.5 0.00 0.1444009 73.2
2021-09-20 11:30:00 75.2 29.3 41.1 75.2 75.2 6.0 18.3 9.6 324.5 284.4 0.00 0.1462872 73.4
2021-09-20 11:35:00 74.6 28.6 39.8 74.6 74.6 11.5 17.1 12.5 274.2 277.6 0.00 0.1469290 73.5
2021-09-20 11:40:00 74.7 27.0 38.4 74.7 74.7 9.6 14.9 11.0 274.4 289.3 0.00 0.1480127 73.6
2021-09-20 11:45:00 75.2 26.7 38.7 75.2 75.2 12.8 16.2 11.5 303.3 291.6 0.00 0.1496365 73.7
2021-09-20 11:50:00 75.8 27.5 39.9 75.8 75.8 13.3 13.7 9.5 273.9 296.7 0.00 0.1512495 73.9
2021-09-20 11:55:00 76.3 26.0 38.9 76.3 76.3 12.6 13.7 9.7 244.7 287.2 0.00 0.1526507 74.0
2021-09-20 12:00:00 76.2 27.3 40.0 76.2 76.2 10.1 19.6 12.3 261.4 275.1 0.00 0.1535385 74.2
2021-09-20 12:05:00 74.9 28.6 40.1 74.9 74.9 9.9 15.3 12.1 291.4 284.6 0.00 0.1549418 74.3
2021-09-20 12:10:00 76.6 25.2 38.4 76.6 76.6 13.7 14.4 11.7 263.4 276.3 0.00 0.1570768 74.4
2021-09-20 12:15:00 76.8 24.3 37.6 76.8 76.8 10.1 17.1 12.1 315.0 281.0 0.00 0.1572934 74.6
2021-09-20 12:20:00 75.9 27.4 39.9 75.9 75.9 10.8 17.6 13.4 283.4 301.8 0.00 0.1575678 74.7
2021-09-20 12:25:00 76.1 25.9 38.6 76.1 76.1 13.1 15.5 11.4 262.5 279.2 0.00 0.1576084 74.9
2021-09-20 12:30:00 77.2 22.9 36.4 77.2 77.2 12.1 16.5 12.1 281.9 283.1 0.00 0.1578615 75.1
2021-09-20 12:35:00 76.7 23.4 36.6 76.7 76.7 13.0 17.1 11.3 300.8 272.5 0.00 0.1583805 75.2
2021-09-20 12:40:00 78.2 22.9 37.2 78.2 78.2 10.1 14.7 10.1 255.7 273.3 0.00 0.1594291 75.4
2021-09-20 12:45:00 77.1 22.0 35.3 77.1 77.1 14.4 20.1 13.0 264.7 249.5 0.00 0.1596422 75.6
2021-09-20 12:50:00 76.9 22.6 35.8 76.9 76.9 12.2 15.1 11.4 293.6 291.8 0.00 0.1587488 75.8
2021-09-20 12:55:00 78.4 21.9 36.2 78.4 78.4 9.9 15.3 10.2 269.5 282.3 0.00 0.1593108 75.9
2021-09-20 13:00:00 77.0 22.7 36.1 77.0 77.0 9.6 15.1 9.4 262.5 288.0 0.00 0.1584667 76.1
2021-09-20 13:05:00 78.7 22.7 37.4 78.7 78.7 5.1 13.7 9.3 288.7 276.8 0.00 0.1587172 76.3
2021-09-20 13:10:00 79.1 21.6 36.5 79.1 79.1 6.5 14.2 8.1 261.6 300.3 0.00 0.1574723 76.5
2021-09-20 13:15:00 78.4 22.5 36.9 78.4 78.4 12.1 15.8 11.3 271.3 282.7 0.00 0.1562105 76.7
2021-09-20 13:20:00 78.0 22.0 36.1 78.0 78.0 10.3 14.4 9.3 279.5 284.8 0.00 0.1565470 76.9
2021-09-20 13:25:00 78.3 23.0 37.5 78.3 78.3 7.6 15.1 8.9 274.0 289.6 0.00 0.1557190 77.1
2021-09-20 13:30:00 78.9 23.9 38.9 78.9 78.9 6.5 10.3 7.4 280.4 277.2 0.00 0.1544782 77.3
2021-09-20 13:35:00 78.2 23.6 38.1 78.2 78.2 6.7 13.1 8.1 272.5 290.4 0.00 0.1524272 77.5
2021-09-20 13:40:00 78.5 23.4 38.1 78.5 78.5 3.8 11.9 7.6 238.6 258.0 0.00 0.1519009 77.6
2021-09-20 13:45:00 79.9 22.3 38.1 79.9 79.9 8.8 14.4 5.5 279.6 258.0 0.00 0.1510701 77.8
2021-09-20 13:50:00 79.4 21.3 36.4 79.4 79.4 4.7 13.5 8.8 269.1 257.9 0.00 0.1504834 78.0
2021-09-20 13:55:00 79.9 20.4 35.7 79.9 79.9 7.2 15.3 10.3 272.7 247.7 0.00 0.1506424 78.2
2021-09-20 14:00:00 80.3 19.6 35.0 80.3 80.3 12.8 18.9 12.9 251.9 255.5 0.00 0.1493508 78.4
2021-09-20 14:05:00 79.3 19.5 34.1 79.3 79.3 13.0 13.0 8.6 211.0 248.8 0.00 0.1481578 78.6
2021-09-20 14:10:00 79.9 19.4 34.4 79.9 79.9 11.5 16.7 12.5 266.8 260.1 0.00 0.1476617 78.8
2021-09-20 14:15:00 80.0 17.7 32.2 80.0 80.0 12.8 14.6 8.7 255.3 276.2 0.00 0.1464642 79.0
2021-09-20 14:20:00 81.0 17.5 32.7 81.0 81.0 5.6 16.2 11.3 342.0 260.8 0.00 0.1457830 79.2
2021-09-20 14:25:00 81.3 17.1 32.4 81.3 81.3 10.5 14.7 11.5 252.9 255.0 0.00 0.1442787 79.4
2021-09-20 14:30:00 80.3 18.2 33.1 80.3 80.3 8.8 15.1 10.5 232.8 239.2 0.00 0.1415088 79.5
2021-09-20 14:35:00 80.9 17.9 33.3 80.9 80.9 14.2 15.3 7.9 286.4 241.0 0.00 0.1395145 79.7
2021-09-20 14:40:00 80.8 18.0 33.4 80.8 80.8 7.6 14.2 10.5 253.3 267.3 0.00 0.1379095 79.9
2021-09-20 14:45:00 81.1 17.6 33.0 81.1 81.1 8.5 15.5 10.7 265.4 262.1 0.00 0.1368892 80.1
2021-09-20 14:50:00 81.2 16.9 32.1 81.2 81.2 6.2 18.7 12.1 258.2 248.6 0.00 0.1348621 80.3
2021-09-20 14:55:00 81.5 16.0 31.0 81.5 81.5 18.7 18.7 12.1 244.6 247.3 0.00 0.1332092 80.5
2021-09-20 15:00:00 81.0 16.6 31.4 81.0 81.0 8.1 17.2 13.3 298.1 263.3 0.00 0.1307781 80.6
2021-09-20 15:05:00 80.4 16.9 31.5 80.4 80.4 9.4 13.5 8.9 245.4 281.9 0.00 0.1282939 80.8
2021-09-20 15:10:00 82.1 15.7 31.1 82.1 82.1 14.2 19.9 12.0 247.7 254.6 0.00 0.1264745 81.0
2021-09-20 15:15:00 81.3 15.7 30.4 81.3 81.3 9.4 17.1 12.1 233.9 247.0 0.00 0.1235572 81.1
2021-09-20 15:20:00 82.1 15.1 30.0 82.1 82.1 17.6 18.1 11.4 277.2 257.1 0.00 0.1216150 81.3
2021-09-20 15:25:00 81.8 15.4 30.3 81.8 81.8 6.3 16.5 10.8 248.9 267.5 0.00 0.1190666 81.5
2021-09-20 15:30:00 81.9 15.0 29.6 81.9 81.9 14.0 15.6 11.0 292.3 295.1 0.00 0.1168343 81.6
2021-09-20 15:35:00 81.8 15.6 30.6 81.8 81.8 11.0 16.5 11.1 283.8 277.9 0.00 0.1140694 81.8
2021-09-20 15:40:00 81.8 15.4 30.3 81.8 81.8 10.5 15.5 11.7 278.5 263.4 0.00 0.1116322 81.9
2021-09-20 15:45:00 81.8 14.8 29.2 81.8 81.8 17.2 18.3 11.9 266.8 278.7 0.00 0.1092685 82.1
2021-09-20 15:50:00 81.5 14.4 28.4 81.5 81.5 8.8 16.0 11.4 319.0 274.8 0.00 0.1064264 82.2
2021-09-20 15:55:00 81.5 15.0 29.4 81.5 81.5 12.6 18.0 13.3 260.1 274.5 0.00 0.1038259 82.4
2021-09-20 16:00:00 81.6 13.9 27.6 81.6 81.6 12.1 17.6 12.5 264.5 263.6 0.00 0.1016201 82.5
2021-09-20 16:05:00 81.6 14.3 28.4 81.6 81.6 9.9 16.5 10.4 272.9 283.4 0.00 0.0982453 82.6
2021-09-20 16:10:00 80.9 14.1 27.5 80.9 80.9 17.8 18.7 12.6 261.4 275.6 0.00 0.0950813 82.7
2021-09-20 16:15:00 81.0 14.0 27.3 81.0 81.0 13.5 17.6 13.1 274.8 270.7 0.00 0.0925714 82.9
2021-09-20 16:20:00 81.0 14.9 28.8 81.0 81.0 10.1 18.1 12.5 258.7 276.3 0.00 0.0896930 83.0
2021-09-20 16:25:00 81.9 14.9 29.6 81.9 81.9 13.0 15.8 10.7 265.6 259.6 0.00 0.0867695 83.1
2021-09-20 16:30:00 81.4 15.6 30.2 81.4 81.4 8.8 18.1 11.4 268.7 261.9 0.00 0.0835654 83.2
2021-09-20 16:35:00 81.1 15.3 29.5 81.1 81.1 11.2 16.4 11.7 270.4 263.3 0.00 0.0803458 83.3
2021-09-20 16:40:00 80.5 15.7 29.7 80.5 80.5 9.4 12.4 8.9 280.4 277.5 0.00 0.0768222 83.4
2021-09-20 16:45:00 81.0 14.7 28.4 81.0 81.0 14.9 18.0 12.3 282.3 279.5 0.00 0.0739334 83.5
2021-09-20 16:50:00 80.8 14.2 27.6 80.8 80.8 14.2 14.7 11.7 276.6 274.0 0.00 0.0709627 83.6
2021-09-20 16:55:00 80.8 15.6 29.7 80.8 80.8 15.1 15.8 10.8 255.4 266.0 0.00 0.0675050 83.7
2021-09-20 17:00:00 80.4 15.5 29.3 80.4 80.4 8.8 15.6 11.5 296.9 284.3 0.00 0.0645390 83.8
2021-09-20 17:05:00 80.7 15.8 29.9 80.7 80.7 9.7 16.0 10.8 272.7 276.4 0.00 0.0613932 83.8
2021-09-20 17:10:00 80.2 15.2 28.7 80.2 80.2 15.5 15.5 11.6 251.1 265.5 0.00 0.0582871 83.9
2021-09-20 17:15:00 79.8 16.3 30.0 79.8 79.8 10.5 17.4 12.4 273.6 282.1 0.00 0.0551124 83.9
2021-09-20 17:20:00 79.7 16.1 29.6 79.7 79.7 11.2 14.6 10.6 234.4 284.0 0.00 0.0519059 84.0
2021-09-20 17:25:00 79.7 16.5 30.3 79.7 79.7 11.3 16.9 11.6 285.3 276.4 0.00 0.0489753 84.0
2021-09-20 17:30:00 79.5 17.0 30.8 79.5 79.5 12.8 14.0 10.4 290.0 285.9 0.00 0.0456027 84.1
2021-09-20 17:35:00 79.7 16.5 30.3 79.7 79.7 12.8 13.3 11.0 243.3 270.8 0.00 0.0427376 84.1
2021-09-20 17:40:00 79.3 16.9 30.5 79.3 79.3 8.0 14.4 11.5 265.4 270.3 0.00 0.0397602 84.1
2021-09-20 17:45:00 79.3 16.7 30.2 79.3 79.3 11.5 15.5 10.6 234.7 262.6 0.00 0.0367877 84.1
2021-09-20 17:50:00 79.4 17.1 30.9 79.4 79.4 8.3 11.7 8.5 268.7 255.2 0.00 0.0335929 84.1
2021-09-20 17:55:00 79.0 17.1 30.6 79.0 79.0 8.3 12.4 9.3 270.2 278.7 0.00 0.0305387 84.1
2021-09-20 18:00:00 78.7 17.2 30.5 78.7 78.7 8.8 14.2 10.5 292.7 279.6 0.00 0.0276072 84.1
2021-09-20 18:05:00 78.5 17.1 30.2 78.5 78.5 7.8 13.0 9.7 290.4 269.7 0.00 0.0248220 84.0
2021-09-20 18:10:00 78.3 17.3 30.3 78.3 78.3 9.9 11.7 9.5 264.4 276.0 0.00 0.0220569 84.0
2021-09-20 18:15:00 78.0 17.1 29.8 78.0 78.0 9.7 15.6 10.9 286.1 275.8 0.00 0.0195642 83.9
2021-09-20 18:20:00 77.7 17.0 29.4 77.7 77.7 13.5 16.4 12.2 283.2 270.2 0.00 0.0173482 83.9
2021-09-20 18:25:00 77.5 17.2 29.5 77.5 77.5 14.2 14.7 12.1 263.0 275.9 0.00 0.0148435 83.9
2021-09-20 18:30:00 77.3 17.7 30.0 77.3 77.3 9.0 14.6 11.1 257.0 265.8 0.00 0.0121390 83.8
2021-09-20 18:35:00 76.9 17.7 29.7 76.9 76.9 10.1 12.8 10.1 267.8 268.9 0.00 0.0095988 83.7
2021-09-20 18:40:00 76.5 18.0 29.8 76.5 76.5 10.3 13.3 9.5 285.8 271.3 0.00 0.0072137 83.7
2021-09-20 18:45:00 76.2 18.3 30.0 76.2 76.2 5.5 12.2 8.6 286.4 280.8 0.00 0.0047488 83.6
2021-09-20 18:50:00 75.5 18.7 30.0 75.5 75.5 7.2 10.5 7.7 271.9 272.2 0.00 0.0021661 83.5
2021-09-20 18:55:00 74.9 19.2 30.1 74.9 74.9 6.7 11.0 7.9 276.7 271.9 0.00 0.0001033 83.4
2021-09-20 19:00:00 74.2 19.8 30.3 74.2 74.2 6.3 9.2 6.9 258.4 267.8 0.00 0.0000000 83.3
2021-09-20 19:05:00 73.1 20.7 30.5 73.1 73.1 4.4 6.5 5.1 264.6 273.3 0.00 0.0000000 83.2
2021-09-20 19:10:00 72.0 21.7 30.7 72.0 72.0 3.8 4.6 4.0 277.2 278.0 0.00 0.0000000 83.1
2021-09-20 19:15:00 71.2 22.3 30.8 71.2 71.2 2.4 4.0 3.2 286.3 286.5 0.00 0.0000000 83.0
2021-09-20 19:20:00 70.8 22.6 30.8 70.8 70.8 1.9 3.1 2.7 241.5 286.9 0.00 0.0000000 82.9
2021-09-20 19:25:00 70.4 23.0 30.9 70.4 70.4 3.0 3.3 2.8 280.1 282.3 0.00 0.0000000 82.9
2021-09-20 19:30:00 69.8 23.5 30.8 69.8 69.8 3.0 4.4 2.9 258.4 271.8 0.00 0.0000000 82.8
2021-09-20 19:35:00 68.8 24.2 30.8 68.8 68.8 3.1 3.5 3.0 251.1 262.5 0.00 0.0000000 82.7
2021-09-20 19:40:00 68.3 24.7 30.8 68.3 68.3 3.7 3.7 2.7 219.7 238.6 0.00 0.0000000 82.5
2021-09-20 19:45:00 68.7 24.5 31.0 68.7 68.7 3.3 3.8 3.5 206.6 211.7 0.00 0.0000000 82.4
2021-09-20 19:50:00 68.0 25.5 31.4 68.0 68.0 3.1 3.7 3.2 204.8 204.9 0.00 0.0000000 82.3
2021-09-20 19:55:00 66.5 27.2 31.6 66.5 66.5 3.1 3.3 2.9 221.6 213.4 0.00 0.0000000 82.2
2021-09-20 20:00:00 65.3 28.5 31.8 65.3 65.3 3.7 4.0 3.6 228.7 221.3 0.00 0.0000000 82.1
2021-09-20 20:05:00 64.6 29.1 31.7 64.6 64.6 4.7 4.7 4.1 215.0 224.5 0.00 0.0000000 82.0
2021-09-20 20:10:00 64.3 29.4 31.6 64.3 64.3 4.2 5.1 4.4 222.8 232.1 0.00 0.0000000 81.9
2021-09-20 20:15:00 64.2 29.3 31.6 64.2 64.2 4.0 4.7 4.0 256.4 237.6 0.00 0.0000000 81.8
2021-09-20 20:20:00 63.8 29.8 31.6 63.8 63.8 3.8 4.6 3.8 266.9 250.1 0.00 0.0000000 81.7
2021-09-20 20:25:00 63.2 30.1 31.4 63.2 63.2 3.8 4.4 3.7 266.6 275.1 0.00 0.0000000 81.5
2021-09-20 20:30:00 62.8 30.4 31.2 62.8 62.8 4.2 4.6 3.9 271.9 263.4 0.00 0.0000000 81.4
2021-09-20 20:35:00 63.1 29.6 30.8 63.1 63.1 4.6 4.9 4.1 299.5 297.4 0.00 0.0000000 81.3
2021-09-20 20:40:00 65.0 27.5 30.7 65.0 65.0 4.2 5.3 4.1 287.7 290.1 0.00 0.0000000 81.2
2021-09-20 20:45:00 66.5 26.8 31.2 66.5 66.5 2.6 4.4 3.4 286.0 290.1 0.00 0.0000000 81.1
2021-09-20 20:50:00 63.3 29.8 31.2 63.3 63.3 4.6 4.6 3.5 281.3 265.0 0.00 0.0000000 80.9
2021-09-20 20:55:00 64.3 28.2 30.7 64.3 64.3 4.2 4.7 4.3 286.5 285.3 0.00 0.0000000 80.8
2021-09-20 21:00:00 65.7 26.9 30.7 65.7 65.7 4.9 5.8 5.1 271.7 265.7 0.00 0.0000000 80.7
2021-09-20 21:05:00 65.7 27.3 31.0 65.7 65.7 4.4 4.9 4.3 283.3 270.5 0.00 0.0000000 80.6
2021-09-20 21:10:00 65.5 27.5 31.1 65.5 65.5 4.7 5.1 4.3 264.1 287.3 0.00 0.0000000 80.4
2021-09-20 21:15:00 63.9 29.7 31.6 63.9 63.9 3.0 5.6 4.3 217.8 246.4 0.00 0.0000000 80.3
2021-09-20 21:20:00 61.6 31.7 31.2 61.6 61.6 2.6 3.1 2.7 249.9 247.7 0.00 0.0000000 80.2
2021-09-20 21:25:00 61.2 32.0 31.1 61.2 61.2 3.7 4.0 3.4 288.4 265.1 0.00 0.0000000 80.1
2021-09-20 21:30:00 61.5 31.3 30.8 61.5 61.5 6.7 6.7 5.0 312.3 290.5 0.00 0.0000000 79.9
2021-09-20 21:35:00 61.7 30.9 30.7 61.7 61.7 5.8 7.1 5.9 300.2 296.5 0.00 0.0000000 79.8
2021-09-20 21:40:00 62.7 29.9 30.7 62.7 62.7 4.7 6.0 5.1 278.6 281.1 0.00 0.0000000 79.6
2021-09-20 21:45:00 62.2 30.7 30.9 62.2 62.2 4.9 4.9 3.5 254.4 269.8 0.00 0.0000000 79.6
2021-09-20 21:50:00 62.3 30.5 30.9 62.3 62.3 3.8 4.9 4.4 227.4 253.8 0.00 0.0000000 79.4
2021-09-20 21:55:00 59.9 33.5 31.1 59.9 59.9 5.8 7.2 4.7 222.2 221.6 0.00 0.0000000 79.3
2021-09-20 22:00:00 57.6 36.3 31.0 57.6 57.6 4.2 6.0 5.0 216.4 218.0 0.00 0.0000000 79.2
2021-09-20 22:05:00 56.5 38.1 31.2 56.5 56.5 2.4 4.6 4.0 247.2 218.7 0.00 0.0000000 79.1
2021-09-20 22:10:00 56.0 38.5 31.1 56.0 56.0 4.0 4.0 3.0 258.2 250.9 0.00 0.0000000 79.0
2021-09-20 22:15:00 57.1 36.7 30.9 57.1 57.1 4.4 5.8 4.5 297.8 277.6 0.00 0.0000000 78.8

Data is courtesy of the NM Climate Center. DO NOT USE IN LEGAL PROCEEDINGS.